createdAt,value
2019-03-30T00:03:26.135Z,4.00
2019-03-30T00:07:35.451Z,4.00
2019-03-30T00:11:44.763Z,4.00
2019-03-30T00:15:54.091Z,3.90
2019-03-30T00:20:03.818Z,3.90
2019-03-30T00:24:13.151Z,3.90
2019-03-30T00:28:22.534Z,3.90
2019-03-30T00:32:31.856Z,3.80
2019-03-30T00:36:41.499Z,3.80
2019-03-30T00:40:50.910Z,3.80
2019-03-30T00:45:00.316Z,3.70
2019-03-30T00:49:09.640Z,3.70
2019-03-30T00:53:19.005Z,3.60
2019-03-30T00:57:29.050Z,3.60
2019-03-30T01:01:38.379Z,3.60
2019-03-30T01:05:47.770Z,3.60
2019-03-30T01:09:57.484Z,3.50
2019-03-30T01:14:06.816Z,3.50
2019-03-30T01:18:16.210Z,3.50
2019-03-30T01:22:25.611Z,3.40
2019-03-30T01:26:34.918Z,3.40
2019-03-30T01:30:44.319Z,3.30
2019-03-30T01:34:53.954Z,3.30
2019-03-30T01:39:04.908Z,3.30
2019-03-30T01:43:14.594Z,3.20
2019-03-30T01:47:24.352Z,3.20
2019-03-30T01:51:33.655Z,3.20
2019-03-30T01:55:42.979Z,3.10
2019-03-30T01:59:52.314Z,3.10
2019-03-30T02:04:01.615Z,3.10
2019-03-30T02:08:10.951Z,3.00
2019-03-30T02:12:20.331Z,3.00
2019-03-30T02:16:29.677Z,2.90
2019-03-30T02:20:40.983Z,2.90
2019-03-30T02:24:50.327Z,2.90
2019-03-30T02:28:59.652Z,2.90
2019-03-30T02:33:09.483Z,2.90
2019-03-30T02:37:19.244Z,2.80
2019-03-30T02:41:28.614Z,2.80
2019-03-30T02:45:37.957Z,2.80
2019-03-30T02:49:47.478Z,2.80
2019-03-30T02:53:56.820Z,2.80
2019-03-30T02:58:06.516Z,2.70
2019-03-30T03:02:15.854Z,2.70
2019-03-30T03:06:25.288Z,2.70
2019-03-30T03:10:35.051Z,2.60
2019-03-30T03:14:45.084Z,2.60
2019-03-30T03:18:54.406Z,2.60
2019-03-30T03:23:03.808Z,2.50
2019-03-30T03:27:13.213Z,2.50
2019-03-30T03:31:22.535Z,2.50
2019-03-30T03:35:31.862Z,2.40
2019-03-30T03:39:41.188Z,2.40
2019-03-30T03:43:51.013Z,2.40
2019-03-30T03:48:00.412Z,2.40
2019-03-30T03:52:10.512Z,2.30
2019-03-30T03:56:22.013Z,2.30
2019-03-30T04:00:33.603Z,2.20
2019-03-30T04:04:47.431Z,2.20
2019-03-30T04:08:59.362Z,2.20
2019-03-30T04:13:11.302Z,2.10
2019-03-30T04:17:21.016Z,2.10
2019-03-30T04:21:43.828Z,2.00
2019-03-30T04:25:41.536Z,2.00
2019-03-30T04:29:50.869Z,2.00
2019-03-30T04:34:00.200Z,1.90
2019-03-30T04:38:13.931Z,1.90
2019-03-30T04:42:21.048Z,1.90
2019-03-30T04:46:30.381Z,1.90
2019-03-30T04:50:40.594Z,1.90
2019-03-30T04:54:50.233Z,1.90
2019-03-30T04:59:00.099Z,1.90
2019-03-30T05:03:09.769Z,1.90
2019-03-30T05:07:19.102Z,1.90
2019-03-30T05:11:28.426Z,1.90
2019-03-30T05:15:38.098Z,1.90
2019-03-30T05:19:47.425Z,1.90
2019-03-30T05:23:56.980Z,1.90
2019-03-30T05:28:06.655Z,1.90
2019-03-30T05:32:16.383Z,1.90
2019-03-30T05:36:26.031Z,2.00
2019-03-30T05:40:35.446Z,2.10
2019-03-30T05:44:44.787Z,2.10
2019-03-30T05:48:54.414Z,2.10
2019-03-30T05:53:04.443Z,2.20
2019-03-30T05:57:14.399Z,2.40
2019-03-30T06:01:23.739Z,2.50
2019-03-30T06:05:34.021Z,2.60
2019-03-30T06:09:43.367Z,2.80
2019-03-30T06:13:53.003Z,3.00
2019-03-30T06:18:02.347Z,3.20
2019-03-30T06:22:12.016Z,3.40
2019-03-30T06:26:21.347Z,3.50
2019-03-30T06:30:30.832Z,3.70
2019-03-30T06:34:40.150Z,3.80
2019-03-30T06:38:49.783Z,3.90
2019-03-30T06:42:59.539Z,4.10
2019-03-30T06:47:08.864Z,4.30
2019-03-30T06:51:18.641Z,4.60
2019-03-30T06:55:27.971Z,4.80
2019-03-30T06:59:37.308Z,5.10
2019-03-30T07:03:47.074Z,5.30
2019-03-30T07:07:56.583Z,5.40
2019-03-30T07:12:06.076Z,5.70
2019-03-30T07:16:15.834Z,6.00
2019-03-30T07:20:28.360Z,6.30
2019-03-30T07:24:38.302Z,6.60
2019-03-30T07:28:48.030Z,7.00
2019-03-30T07:32:57.706Z,7.30
2019-03-30T07:37:07.192Z,7.60
2019-03-30T07:41:16.507Z,8.00
2019-03-30T07:45:25.834Z,8.30
2019-03-30T07:49:35.172Z,8.60
2019-03-30T07:53:45.118Z,8.80
2019-03-30T07:57:54.679Z,9.20
2019-03-30T08:02:04.011Z,9.60
2019-03-30T08:06:16.334Z,10.00
2019-03-30T08:10:26.015Z,10.40
2019-03-30T08:14:35.434Z,10.70
2019-03-30T08:18:45.420Z,11.20
2019-03-30T08:22:54.767Z,11.80
2019-03-30T08:27:04.273Z,12.40
2019-03-30T08:31:13.658Z,13.10
2019-03-30T08:35:23.007Z,13.40
2019-03-30T08:39:32.954Z,13.60
2019-03-30T08:43:42.634Z,14.00
2019-03-30T08:47:51.991Z,14.40
2019-03-30T08:52:01.415Z,14.70
2019-03-30T08:56:11.076Z,14.90
2019-03-30T09:00:36.995Z,15.10
2019-03-30T09:04:46.339Z,15.20
2019-03-30T09:08:55.742Z,15.40
2019-03-30T09:13:05.168Z,15.50
2019-03-30T09:17:14.774Z,15.60
2019-03-30T09:21:24.110Z,15.80
2019-03-30T09:25:34.147Z,15.90
2019-03-30T09:29:43.727Z,16.00
2019-03-30T09:33:53.123Z,16.20
2019-03-30T09:38:02.480Z,16.40
2019-03-30T09:42:12.174Z,16.50
2019-03-30T09:46:21.525Z,16.60
2019-03-30T09:50:30.867Z,16.80
2019-03-30T09:54:40.216Z,16.80
2019-03-30T09:58:50.165Z,16.90
2019-03-30T10:02:59.790Z,16.90
2019-03-30T10:07:09.140Z,17.00
2019-03-30T10:11:18.475Z,17.10
2019-03-30T10:15:27.882Z,17.30
2019-03-30T10:19:37.618Z,17.30
2019-03-30T10:23:47.254Z,17.40
2019-03-30T10:27:56.743Z,17.70
2019-03-30T10:32:06.091Z,18.10
2019-03-30T10:36:15.431Z,18.00
2019-03-30T10:40:25.034Z,18.10
2019-03-30T10:44:34.452Z,18.20
2019-03-30T10:48:43.792Z,18.20
2019-03-30T10:52:53.143Z,18.20
2019-03-30T10:57:02.825Z,18.50
2019-03-30T11:01:12.284Z,18.80
2019-03-30T11:05:21.922Z,18.80
2019-03-30T11:09:31.253Z,18.80
2019-03-30T11:30:38.911Z,18.50
2019-03-30T11:34:48.259Z,19.00
2019-03-30T11:38:57.668Z,19.20
2019-03-30T11:43:06.994Z,19.70
2019-03-30T11:47:16.409Z,19.90
2019-03-30T11:51:25.788Z,20.10
2019-03-30T11:55:35.458Z,20.30
2019-03-30T11:59:45.027Z,20.40
2019-03-30T12:03:54.380Z,20.40
2019-03-30T12:08:03.882Z,20.40
2019-03-30T12:12:13.288Z,20.50
2019-03-30T12:16:22.986Z,20.70
2019-03-30T12:20:32.480Z,20.60
2019-03-30T12:24:41.881Z,20.60
2019-03-30T12:28:51.223Z,20.70
2019-03-30T12:33:00.550Z,20.50
2019-03-30T12:37:09.959Z,20.20
2019-03-30T12:41:19.291Z,20.30
2019-03-30T12:45:28.875Z,20.50
2019-03-30T12:49:38.604Z,20.90
2019-03-30T12:58:57.267Z,21.30
2019-03-30T13:03:07.095Z,21.10
2019-03-30T13:07:16.415Z,21.00
2019-03-30T13:11:25.745Z,21.30
2019-03-30T13:15:35.139Z,21.30
2019-03-30T13:19:44.580Z,21.40
2019-03-30T13:23:53.962Z,21.30
2019-03-30T13:28:03.562Z,21.50
2019-03-30T13:32:12.906Z,21.50
2019-03-30T13:36:39.003Z,21.40
2019-03-30T13:40:48.314Z,21.40
2019-03-30T13:44:57.867Z,21.50
2019-03-30T13:49:07.246Z,21.50
2019-03-30T13:53:16.658Z,21.60
2019-03-30T13:57:26.021Z,21.50
2019-03-30T14:01:35.408Z,21.60
2019-03-30T14:05:44.788Z,21.70
2019-03-30T14:09:54.094Z,21.60
2019-03-30T14:14:03.814Z,21.50
2019-03-30T14:18:13.147Z,21.60
2019-03-30T14:22:23.083Z,21.70
2019-03-30T14:26:32.431Z,21.80
2019-03-30T14:30:42.011Z,21.90
2019-03-30T14:34:51.551Z,22.20
2019-03-30T14:39:01.158Z,22.20
2019-03-30T14:43:10.471Z,22.00
2019-03-30T14:47:19.787Z,21.60
2019-03-30T14:51:29.334Z,21.70
2019-03-30T14:55:39.758Z,21.70
2019-03-30T14:59:49.131Z,21.60
2019-03-30T15:03:58.453Z,21.50
2019-03-30T15:08:07.838Z,22.00
2019-03-30T15:12:17.471Z,22.30
2019-03-30T15:16:26.791Z,22.00
2019-03-30T15:20:36.191Z,21.70
2019-03-30T15:24:45.747Z,21.50
2019-03-30T15:28:55.590Z,20.70
2019-03-30T15:33:05.079Z,20.70
2019-03-30T15:37:14.391Z,21.10
2019-03-30T15:41:23.707Z,21.40
2019-03-30T15:45:33.052Z,21.00
2019-03-30T15:49:42.370Z,20.80
2019-03-30T15:53:52.046Z,20.80
2019-03-30T15:58:01.787Z,21.00
2019-03-30T16:02:11.354Z,21.00
2019-03-30T16:06:20.667Z,20.80
2019-03-30T16:10:30.199Z,20.60
2019-03-30T16:14:39.762Z,20.70
2019-03-30T16:18:49.091Z,20.40
2019-03-30T16:22:58.652Z,20.60
2019-03-30T16:27:07.982Z,20.70
2019-03-30T16:31:17.380Z,20.50
2019-03-30T16:35:26.703Z,20.40
2019-03-30T16:39:36.278Z,20.40
2019-03-30T16:43:45.695Z,20.20
2019-03-30T16:47:55.335Z,19.80
2019-03-30T16:52:04.798Z,19.40
2019-03-30T16:56:14.116Z,18.90
2019-03-30T17:00:23.646Z,18.80
2019-03-30T17:04:33.257Z,18.70
2019-03-30T17:08:42.554Z,18.40
2019-03-30T17:12:52.159Z,18.30
2019-03-30T17:17:01.991Z,18.20
2019-03-30T17:21:11.316Z,18.10
2019-03-30T17:25:20.714Z,17.90
2019-03-30T17:29:30.088Z,17.80
2019-03-30T17:33:40.235Z,17.80
2019-03-30T17:37:49.642Z,17.50
2019-03-30T17:41:58.966Z,17.20
2019-03-30T17:46:08.954Z,17.00
2019-03-30T17:50:18.763Z,16.70
2019-03-30T17:54:28.348Z,16.40
2019-03-30T17:58:38.236Z,16.10
2019-03-30T18:02:47.638Z,15.70
2019-03-30T18:06:57.471Z,15.40
2019-03-30T18:11:06.940Z,15.00
2019-03-30T18:15:16.769Z,14.60
2019-03-30T18:19:26.094Z,14.30
2019-03-30T18:23:35.698Z,14.00
2019-03-30T18:27:45.076Z,13.70
2019-03-30T18:31:55.366Z,13.50
2019-03-30T18:36:05.211Z,13.30
2019-03-30T18:40:27.211Z,13.10
2019-03-30T18:44:36.734Z,13.00
2019-03-30T18:48:46.379Z,12.90
2019-03-30T18:52:55.955Z,12.80
2019-03-30T18:57:06.352Z,12.80
2019-03-30T19:01:15.927Z,12.70
2019-03-30T19:05:25.554Z,12.60
2019-03-30T19:09:34.874Z,12.50
2019-03-30T19:13:44.272Z,12.40
2019-03-30T19:17:53.687Z,12.20
2019-03-30T19:22:03.154Z,12.00
2019-03-30T19:26:12.534Z,11.90
2019-03-30T19:30:23.619Z,11.70
2019-03-30T19:34:33.177Z,11.60
2019-03-30T19:38:44.011Z,11.30
2019-03-30T19:42:53.854Z,11.20
2019-03-30T19:47:03.197Z,11.00
2019-03-30T19:51:12.936Z,10.80
2019-03-30T19:55:22.610Z,10.70
2019-03-30T19:59:32.052Z,10.50
2019-03-30T20:03:41.384Z,10.40
2019-03-30T20:07:50.774Z,10.30
2019-03-30T20:12:00.312Z,10.20
2019-03-30T20:16:09.910Z,10.10
2019-03-30T20:20:19.565Z,10.00
2019-03-30T20:24:28.922Z,9.90
2019-03-30T20:28:38.280Z,9.80
2019-03-30T20:32:48.134Z,9.60
2019-03-30T20:36:57.786Z,9.50
2019-03-30T20:41:07.687Z,9.40
2019-03-30T20:45:17.270Z,9.30
2019-03-30T20:49:27.131Z,9.10
2019-03-30T20:53:36.761Z,9.10
2019-03-30T20:57:46.079Z,9.00
2019-03-30T21:01:55.912Z,8.90
2019-03-30T21:06:05.541Z,8.80
2019-03-30T21:10:15.294Z,8.70
2019-03-30T21:14:24.622Z,8.50
2019-03-30T21:18:34.234Z,8.40
2019-03-30T21:22:43.794Z,8.30
2019-03-30T21:26:53.146Z,8.20
2019-03-30T21:31:02.997Z,8.20
2019-03-30T21:35:12.471Z,8.10
2019-03-30T21:39:21.791Z,8.10
2019-03-30T21:43:31.206Z,8.00
2019-03-30T21:47:40.562Z,8.00
2019-03-30T21:51:50.239Z,7.90
2019-03-30T21:55:59.563Z,7.90
2019-03-30T22:00:11.004Z,7.90
2019-03-30T22:04:20.815Z,7.90
2019-03-30T22:08:31.191Z,7.90
2019-03-30T22:12:43.147Z,7.90
2019-03-30T22:16:52.800Z,8.00
2019-03-30T22:21:02.499Z,8.00
2019-03-30T22:25:12.163Z,7.90
2019-03-30T22:29:21.767Z,7.90
2019-03-30T22:33:31.154Z,7.80
2019-03-30T22:37:40.558Z,7.70
2019-03-30T22:41:49.917Z,7.60
2019-03-30T22:45:59.482Z,7.50
2019-03-30T22:50:09.575Z,7.40
2019-03-30T22:54:19.115Z,7.30
2019-03-30T22:58:28.519Z,7.20
2019-03-30T23:02:37.990Z,7.20
2019-03-30T23:06:47.474Z,7.10
2019-03-30T23:10:56.875Z,7.00
2019-03-30T23:15:06.666Z,6.90
2019-03-30T23:19:16.230Z,6.80
2019-03-30T23:23:25.830Z,6.70
2019-03-30T23:27:35.140Z,6.70
2019-03-30T23:31:44.462Z,6.60
2019-03-30T23:35:54.392Z,6.50
2019-03-30T23:40:03.975Z,6.40
2019-03-30T23:44:13.618Z,6.40
2019-03-30T23:48:23.039Z,6.30
2019-03-30T23:52:32.623Z,6.20
2019-03-30T23:56:41.950Z,6.20
